createdAt,value
2018-02-27T00:07:15.116Z,10.47
2018-02-27T00:09:44.464Z,11.00
2018-02-27T00:12:13.279Z,11.80
2018-02-27T00:14:42.139Z,10.97
2018-02-27T00:17:11.096Z,11.83
2018-02-27T00:19:39.500Z,11.70
2018-02-27T00:22:08.312Z,11.60
2018-02-27T00:24:36.995Z,11.23
2018-02-27T00:27:05.784Z,12.30
2018-02-27T00:29:34.676Z,11.07
2018-02-27T00:32:03.143Z,11.50
2018-02-27T00:34:32.423Z,10.83
2018-02-27T00:37:01.032Z,12.73
2018-02-27T00:39:29.532Z,11.67
2018-02-27T00:41:58.348Z,11.53
2018-02-27T00:44:27.092Z,10.77
2018-02-27T00:46:55.803Z,11.17
2018-02-27T00:49:24.384Z,13.10
2018-02-27T00:51:53.096Z,11.87
2018-02-27T00:54:21.711Z,13.50
2018-02-27T00:56:51.388Z,13.40
2018-02-27T00:59:19.976Z,12.63
2018-02-27T01:01:48.795Z,13.27
2018-02-27T01:04:18.347Z,11.20
2018-02-27T01:06:46.962Z,12.73
2018-02-27T01:09:15.780Z,12.80
2018-02-27T01:11:45.153Z,11.57
2018-02-27T01:14:13.871Z,12.33
2018-02-27T01:16:43.659Z,12.20
2018-02-27T01:19:12.240Z,13.77
2018-02-27T01:21:41.163Z,13.00
2018-02-27T01:24:10.535Z,14.53
2018-02-27T01:26:39.256Z,15.47
2018-02-27T01:29:07.788Z,14.40
2018-02-27T01:31:36.499Z,15.20
2018-02-27T01:34:05.183Z,14.93
2018-02-27T01:36:34.044Z,15.03
2018-02-27T01:39:07.176Z,13.23
2018-02-27T01:41:35.758Z,13.30
2018-02-27T01:44:05.211Z,14.90
2018-02-27T01:46:33.744Z,13.07
2018-02-27T01:49:02.324Z,12.07
2018-02-27T01:51:31.215Z,12.33
2018-02-27T01:53:59.936Z,12.37
2018-02-27T01:56:28.649Z,14.63
2018-02-27T01:58:58.200Z,13.73
2018-02-27T02:01:27.065Z,13.70
2018-02-27T02:03:55.735Z,13.00
2018-02-27T02:06:25.927Z,15.27
2018-02-27T02:08:55.643Z,14.57
2018-02-27T02:11:24.992Z,14.87
2018-02-27T02:13:53.676Z,14.53
2018-02-27T02:16:22.524Z,16.03
2018-02-27T02:18:51.904Z,15.53
2018-02-27T02:21:20.512Z,16.13
2018-02-27T02:23:50.272Z,16.07
2018-02-27T02:26:18.885Z,16.70
2018-02-27T02:28:48.154Z,16.83
2018-02-27T02:31:17.632Z,14.73
2018-02-27T02:33:46.069Z,16.43
2018-02-27T02:36:15.348Z,16.30
2018-02-27T02:38:44.162Z,16.50
2018-02-27T02:41:12.880Z,15.53
2018-02-27T02:43:41.414Z,14.90
2018-02-27T02:46:09.894Z,16.03
2018-02-27T02:48:38.572Z,16.03
2018-02-27T02:51:07.486Z,15.50
2018-02-27T02:53:36.321Z,16.13
2018-02-27T02:56:04.776Z,14.87
2018-02-27T02:58:34.064Z,13.53
2018-02-27T03:01:07.741Z,14.03
2018-02-27T03:03:36.652Z,15.00
2018-02-27T03:06:05.224Z,15.63
2018-02-27T03:08:36.471Z,14.90
2018-02-27T03:11:04.992Z,15.43
2018-02-27T03:13:34.187Z,17.17
2018-02-27T03:16:02.839Z,19.73
2018-02-27T03:18:31.623Z,18.07
2018-02-27T03:21:00.377Z,18.70
2018-02-27T03:23:28.832Z,18.77
2018-02-27T03:25:57.586Z,18.87
2018-02-27T03:28:26.413Z,19.60
2018-02-27T03:30:55.684Z,20.53
2018-02-27T03:33:24.363Z,19.10
2018-02-27T03:35:53.316Z,18.90
2018-02-27T03:38:22.588Z,19.90
2018-02-27T03:40:51.583Z,18.80
2018-02-27T03:43:20.300Z,19.27
2018-02-27T03:45:49.652Z,19.33
2018-02-27T03:48:18.568Z,18.30
2018-02-27T03:50:48.719Z,19.07
2018-02-27T03:53:17.253Z,19.73
2018-02-27T03:55:45.831Z,18.63
2018-02-27T03:58:15.272Z,19.10
2018-02-27T04:00:43.744Z,17.43
2018-02-27T04:03:12.364Z,19.30
2018-02-27T04:05:40.899Z,17.50
2018-02-27T04:08:09.472Z,18.07
2018-02-27T04:10:38.572Z,18.73
2018-02-27T04:13:07.387Z,17.23
2018-02-27T04:15:36.103Z,16.73
2018-02-27T04:18:05.382Z,18.20
2018-02-27T04:20:34.119Z,16.03
2018-02-27T04:23:02.728Z,16.77
2018-02-27T04:25:31.515Z,17.00
2018-02-27T04:28:00.196Z,15.87
2018-02-27T04:30:29.187Z,15.00
2018-02-27T04:32:57.942Z,15.30
2018-02-27T04:35:26.368Z,16.10
2018-02-27T04:37:54.978Z,15.77
2018-02-27T04:40:23.967Z,16.20
2018-02-27T04:42:52.687Z,15.73
2018-02-27T04:45:22.059Z,17.40
2018-02-27T04:47:50.820Z,19.33
2018-02-27T04:50:19.420Z,17.07
2018-02-27T04:52:47.999Z,15.43
2018-02-27T04:55:16.603Z,16.97
2018-02-27T04:57:45.468Z,16.23
2018-02-27T05:00:14.242Z,16.00
2018-02-27T05:02:42.744Z,16.17
2018-02-27T05:05:11.532Z,17.73
2018-02-27T05:07:40.215Z,16.33
2018-02-27T05:10:09.167Z,16.70
2018-02-27T05:12:38.719Z,16.07
2018-02-27T05:15:07.433Z,17.93
2018-02-27T05:17:36.152Z,16.97
2018-02-27T05:20:05.703Z,16.60
2018-02-27T05:22:34.347Z,15.73
2018-02-27T05:25:03.692Z,16.10
2018-02-27T05:27:32.508Z,17.00
2018-02-27T05:30:01.577Z,14.77
2018-02-27T05:32:30.338Z,14.60
2018-02-27T05:34:58.991Z,13.83
2018-02-27T05:37:28.416Z,13.07
2018-02-27T05:39:57.765Z,15.73
2018-02-27T05:42:27.239Z,13.43
2018-02-27T05:44:55.855Z,12.53
2018-02-27T05:47:24.535Z,13.30
2018-02-27T05:49:53.492Z,13.97
2018-02-27T05:52:22.836Z,13.73
2018-02-27T05:54:51.651Z,13.90
2018-02-27T05:57:21.032Z,13.03
2018-02-27T05:59:49.648Z,12.90
2018-02-27T06:02:18.612Z,13.13
2018-02-27T06:04:47.360Z,12.03
2018-02-27T06:07:15.991Z,11.47
2018-02-27T06:09:44.703Z,12.13
2018-02-27T06:12:13.463Z,12.90
2018-02-27T06:14:42.143Z,11.40
2018-02-27T06:17:11.101Z,11.13
2018-02-27T06:19:40.091Z,11.70
2018-02-27T06:22:09.444Z,12.50
2018-02-27T06:24:38.535Z,11.80
2018-02-27T06:27:07.224Z,11.53
2018-02-27T06:29:36.112Z,11.90
2018-02-27T06:32:05.071Z,13.07
2018-02-27T06:34:34.063Z,11.13
2018-02-27T06:37:02.877Z,10.80
2018-02-27T06:39:31.549Z,9.97
2018-02-27T06:42:00.272Z,9.83
2018-02-27T06:44:29.084Z,8.47
2018-02-27T06:46:57.804Z,10.73
2018-02-27T06:49:27.360Z,8.70
2018-02-27T06:51:56.039Z,9.90
2018-02-27T06:54:24.714Z,9.07
2018-02-27T06:56:53.527Z,9.20
2018-02-27T06:59:22.148Z,9.40
2018-02-27T07:01:51.401Z,11.40
2018-02-27T07:04:20.135Z,9.83
2018-02-27T07:06:49.281Z,9.63
2018-02-27T07:09:18.079Z,8.17
2018-02-27T07:11:46.697Z,8.67
2018-02-27T07:14:15.414Z,8.70
2018-02-27T07:16:43.952Z,6.83
2018-02-27T07:19:12.732Z,7.20
2018-02-27T07:21:41.207Z,5.63
2018-02-27T07:24:10.100Z,5.90
2018-02-27T07:26:38.847Z,8.83
2018-02-27T07:29:08.403Z,8.30
2018-02-27T07:31:37.541Z,8.00
2018-02-27T07:34:06.731Z,7.30
2018-02-27T07:36:36.024Z,8.33
2018-02-27T07:39:04.872Z,8.23
2018-02-27T07:41:33.575Z,6.70
2018-02-27T07:44:02.372Z,8.63
2018-02-27T07:46:31.184Z,7.97
2018-02-27T07:49:00.044Z,8.77
2018-02-27T07:51:28.896Z,8.70
2018-02-27T07:53:58.319Z,7.87
2018-02-27T07:56:28.103Z,7.20
2018-02-27T07:58:56.894Z,8.77
2018-02-27T08:01:26.723Z,7.43
2018-02-27T08:03:56.017Z,7.57
2018-02-27T08:06:26.781Z,8.27
2018-02-27T08:08:56.852Z,7.27
2018-02-27T08:11:26.060Z,7.07
2018-02-27T08:13:54.762Z,8.03
2018-02-27T08:16:23.768Z,6.90
2018-02-27T08:18:52.531Z,7.57
2018-02-27T08:21:21.840Z,6.90
2018-02-27T08:23:51.495Z,6.93
2018-02-27T08:26:20.347Z,8.10
2018-02-27T08:28:49.700Z,9.20
2018-02-27T08:31:18.638Z,10.97
2018-02-27T08:33:47.414Z,10.90
2018-02-27T08:36:16.720Z,12.17
2018-02-27T08:38:46.115Z,13.17
2018-02-27T08:41:14.670Z,13.37
2018-02-27T08:43:43.556Z,13.67
2018-02-27T08:46:12.447Z,13.63
2018-02-27T08:48:41.204Z,12.97
2018-02-27T08:51:10.571Z,12.97
2018-02-27T08:53:39.431Z,14.00
2018-02-27T08:56:08.037Z,13.33
2018-02-27T08:58:36.836Z,13.37
2018-02-27T09:01:05.556Z,12.97
2018-02-27T09:03:36.283Z,14.10
2018-02-27T09:06:05.324Z,12.80
2018-02-27T09:08:33.899Z,12.73
2018-02-27T09:11:02.531Z,12.27
2018-02-27T09:13:31.520Z,14.03
2018-02-27T09:16:00.287Z,13.37
2018-02-27T09:18:29.081Z,12.93
2018-02-27T09:20:58.067Z,12.70
2018-02-27T09:23:26.839Z,11.77
2018-02-27T09:25:55.323Z,11.93
2018-02-27T09:28:24.296Z,12.23
2018-02-27T09:30:52.843Z,11.40
2018-02-27T09:33:21.563Z,11.53
2018-02-27T09:35:50.106Z,10.60
2018-02-27T09:38:18.684Z,10.80
2018-02-27T09:40:47.287Z,11.17
2018-02-27T09:43:16.210Z,10.57
2018-02-27T09:45:44.621Z,10.33
2018-02-27T09:48:13.356Z,11.50
2018-02-27T09:50:42.667Z,11.93
2018-02-27T09:53:12.184Z,10.43
2018-02-27T09:55:41.741Z,10.60
2018-02-27T09:58:10.348Z,10.17
2018-02-27T10:00:39.095Z,10.37
2018-02-27T10:03:07.703Z,10.70
2018-02-27T10:05:36.279Z,11.30
2018-02-27T10:08:05.380Z,10.47
2018-02-27T10:10:34.172Z,10.47
2018-02-27T10:13:02.748Z,10.67
2018-02-27T10:15:31.523Z,11.37
2018-02-27T10:18:00.151Z,11.07
2018-02-27T10:20:28.924Z,11.37
2018-02-27T10:22:57.528Z,11.37
2018-02-27T10:25:26.245Z,11.93
2018-02-27T10:27:54.779Z,12.43
2018-02-27T10:30:23.559Z,12.03
2018-02-27T10:32:52.170Z,10.67
2018-02-27T10:35:21.328Z,10.20
2018-02-27T10:37:51.059Z,12.27
2018-02-27T10:40:19.932Z,10.33
2018-02-27T10:42:48.534Z,10.60
2018-02-27T10:45:17.501Z,10.10
2018-02-27T10:47:46.320Z,9.57
2018-02-27T10:50:15.003Z,9.93
2018-02-27T10:52:44.336Z,10.33
2018-02-27T10:55:13.048Z,9.87
2018-02-27T10:57:41.460Z,10.00
2018-02-27T11:00:10.300Z,9.37
2018-02-27T11:02:40.696Z,10.20
2018-02-27T11:05:09.304Z,9.43
2018-02-27T11:07:38.164Z,9.80
2018-02-27T11:10:06.940Z,11.27
2018-02-27T11:12:35.427Z,9.70
2018-02-27T11:15:04.234Z,9.77
2018-02-27T11:17:43.783Z,10.73
2018-02-27T11:20:12.676Z,11.50
2018-02-27T11:22:41.585Z,10.30
2018-02-27T11:25:10.307Z,10.40
2018-02-27T11:27:39.117Z,10.53
2018-02-27T11:30:07.684Z,9.90
2018-02-27T11:32:36.319Z,11.90
2018-02-27T11:35:05.399Z,10.20
2018-02-27T11:37:34.018Z,10.37
2018-02-27T11:40:02.982Z,10.60
2018-02-27T11:42:31.757Z,11.77
2018-02-27T11:45:00.363Z,10.90
2018-02-27T11:47:28.944Z,9.83
2018-02-27T11:49:57.756Z,11.00
2018-02-27T11:52:26.582Z,9.53
2018-02-27T11:54:54.995Z,11.30
2018-02-27T11:57:23.791Z,10.43
2018-02-27T11:59:52.589Z,12.17
2018-02-27T12:02:21.348Z,10.30
2018-02-27T12:04:50.149Z,11.10
2018-02-27T12:07:18.764Z,11.30
2018-02-27T12:09:47.327Z,10.40
2018-02-27T12:12:16.147Z,10.80
2018-02-27T12:14:45.009Z,11.73
2018-02-27T12:17:13.772Z,10.80
2018-02-27T12:19:42.329Z,10.23
2018-02-27T12:22:11.161Z,10.37
2018-02-27T12:24:40.380Z,9.63
2018-02-27T12:27:08.964Z,10.43
2018-02-27T12:29:37.847Z,11.57
2018-02-27T12:32:07.001Z,11.33
2018-02-27T12:34:36.881Z,10.60
2018-02-27T12:37:06.328Z,10.47
2018-02-27T12:39:34.888Z,10.40
2018-02-27T12:42:03.440Z,11.00
2018-02-27T12:44:32.128Z,11.53
2018-02-27T12:47:01.079Z,11.10
2018-02-27T12:49:29.822Z,11.43
2018-02-27T12:51:58.328Z,10.90
2018-02-27T12:54:28.303Z,11.10
2018-02-27T12:56:57.405Z,11.20
2018-02-27T12:59:26.179Z,11.17
2018-02-27T13:01:54.812Z,10.80
2018-02-27T13:04:23.371Z,11.23
2018-02-27T13:06:52.111Z,11.70
2018-02-27T13:09:21.659Z,12.83
2018-02-27T13:11:50.312Z,13.00
2018-02-27T13:14:18.864Z,11.57
2018-02-27T13:16:48.396Z,10.47
2018-02-27T13:19:17.859Z,11.57
2018-02-27T13:21:46.528Z,11.07
2018-02-27T13:24:15.063Z,10.63
2018-02-27T13:26:44.620Z,10.87
2018-02-27T13:29:13.084Z,11.50
2018-02-27T13:31:41.717Z,10.47
2018-02-27T13:34:10.512Z,9.97
2018-02-27T13:36:39.471Z,10.60
2018-02-27T13:39:08.453Z,9.73
2018-02-27T13:41:36.936Z,9.43
2018-02-27T13:44:05.844Z,9.70
2018-02-27T13:46:34.585Z,10.50
2018-02-27T13:49:04.226Z,9.70
2018-02-27T13:51:32.740Z,9.30
2018-02-27T13:54:01.408Z,9.40
2018-02-27T13:56:29.971Z,8.57
2018-02-27T13:58:58.588Z,9.77
2018-02-27T14:01:27.191Z,9.63
2018-02-27T14:03:56.056Z,10.47
2018-02-27T14:06:24.696Z,9.07
2018-02-27T14:08:53.860Z,9.30
2018-02-27T14:11:25.726Z,9.03
2018-02-27T14:14:01.980Z,10.67
2018-02-27T14:16:31.053Z,11.00
2018-02-27T14:18:59.800Z,10.67
2018-02-27T14:21:29.453Z,11.90
2018-02-27T14:23:58.052Z,10.90
2018-02-27T14:26:26.738Z,9.63
2018-02-27T14:28:55.687Z,11.13
2018-02-27T14:31:24.206Z,11.53
2018-02-27T14:33:52.939Z,10.57
2018-02-27T14:36:22.376Z,9.50
2018-02-27T14:38:51.387Z,9.10
2018-02-27T14:41:19.912Z,9.57
2018-02-27T14:43:48.568Z,9.50
2018-02-27T14:46:17.232Z,8.30
2018-02-27T14:48:45.780Z,9.80
2018-02-27T14:51:15.155Z,8.70
2018-02-27T14:53:44.099Z,6.90
2018-02-27T14:56:12.936Z,9.00
2018-02-27T14:58:41.527Z,8.23
2018-02-27T15:01:10.260Z,9.23
2018-02-27T15:03:39.817Z,9.47
2018-02-27T15:06:08.627Z,8.73
2018-02-27T15:08:37.347Z,8.70
2018-02-27T15:11:06.796Z,9.70
2018-02-27T15:13:35.335Z,9.30
2018-02-27T15:16:04.892Z,9.47
2018-02-27T15:18:33.704Z,10.10
2018-02-27T15:21:02.480Z,8.47
2018-02-27T15:23:31.239Z,8.53
2018-02-27T15:26:00.033Z,8.70
2018-02-27T15:28:28.560Z,9.43
2018-02-27T15:30:57.140Z,9.57
2018-02-27T15:33:27.424Z,8.73
2018-02-27T15:35:56.005Z,8.90
2018-02-27T15:38:24.608Z,9.40
2018-02-27T15:40:53.424Z,8.13
2018-02-27T15:43:22.144Z,10.57
2018-02-27T15:45:50.480Z,9.27
2018-02-27T15:48:19.255Z,9.00
2018-02-27T15:50:47.939Z,9.40
2018-02-27T15:53:16.613Z,8.90
2018-02-27T15:55:45.356Z,8.53
2018-02-27T15:58:14.892Z,10.03
2018-02-27T16:00:43.391Z,8.03
2018-02-27T16:03:12.231Z,7.53
2018-02-27T16:05:40.812Z,7.63
2018-02-27T16:08:10.424Z,6.60
2018-02-27T16:10:40.769Z,7.50
2018-02-27T16:13:09.680Z,7.40
2018-02-27T16:15:42.554Z,6.20
2018-02-27T16:18:11.569Z,6.73
2018-02-27T16:20:40.393Z,6.67
2018-02-27T16:23:08.967Z,7.03
2018-02-27T16:25:37.784Z,6.40
2018-02-27T16:28:06.503Z,6.93
2018-02-27T16:30:35.976Z,6.47
2018-02-27T16:33:04.595Z,6.77
2018-02-27T16:35:33.411Z,8.17
2018-02-27T16:38:02.029Z,7.03
2018-02-27T16:40:30.703Z,7.23
2018-02-27T16:42:59.422Z,6.77
2018-02-27T16:45:28.492Z,7.10
2018-02-27T16:47:57.404Z,7.90
2018-02-27T16:50:26.034Z,7.30
2018-02-27T16:52:55.764Z,7.87
2018-02-27T16:55:24.708Z,7.50
2018-02-27T16:57:54.140Z,7.43
2018-02-27T17:00:22.764Z,7.40
2018-02-27T17:02:51.439Z,7.10
2018-02-27T17:05:20.296Z,7.50
2018-02-27T17:07:49.111Z,6.63
2018-02-27T17:10:17.784Z,7.00
2018-02-27T17:13:54.943Z,7.53
2018-02-27T17:16:24.243Z,7.73
2018-02-27T17:18:53.202Z,7.13
2018-02-27T17:21:31.428Z,8.30
2018-02-27T17:24:00.290Z,7.23
2018-02-27T17:26:28.961Z,6.90
2018-02-27T17:28:57.035Z,6.67
2018-02-27T17:31:25.860Z,8.67
2018-02-27T17:33:54.576Z,7.67
2018-02-27T17:36:22.789Z,7.70
2018-02-27T17:38:51.133Z,6.97
2018-02-27T17:41:19.224Z,6.77
2018-02-27T17:43:47.442Z,7.93
2018-02-27T17:46:16.267Z,7.40
2018-02-27T17:48:44.350Z,8.10
2018-02-27T17:51:12.920Z,7.50
2018-02-27T17:53:40.987Z,7.03
2018-02-27T17:56:09.104Z,7.63
2018-02-27T17:58:37.973Z,6.70
2018-02-27T18:01:06.072Z,7.50
2018-02-27T18:03:34.165Z,7.17
2018-02-27T18:06:02.388Z,7.67
2018-02-27T18:08:30.472Z,7.80
2018-02-27T18:10:58.821Z,9.03
2018-02-27T18:13:27.055Z,7.30
2018-02-27T18:15:55.135Z,7.80
2018-02-27T18:18:23.207Z,8.90
2018-02-27T18:20:51.424Z,7.63
2018-02-27T18:23:19.499Z,8.57
2018-02-27T18:25:47.732Z,8.60
2018-02-27T18:28:16.822Z,9.00
2018-02-27T18:30:45.909Z,7.60
2018-02-27T18:33:13.977Z,8.90
2018-02-27T18:35:42.194Z,9.43
2018-02-27T18:38:11.146Z,10.40
2018-02-27T18:40:39.377Z,9.77
2018-02-27T18:43:08.316Z,10.77
2018-02-27T18:45:36.508Z,9.20
2018-02-27T18:48:04.613Z,10.43
2018-02-27T18:50:33.443Z,11.63
2018-02-27T18:53:01.654Z,11.90
2018-02-27T18:55:29.860Z,11.00
2018-02-27T18:57:58.686Z,11.50
2018-02-27T19:00:26.913Z,12.63
2018-02-27T19:02:55.015Z,12.70
2018-02-27T19:05:23.096Z,12.07
2018-02-27T19:07:51.304Z,12.67
2018-02-27T19:10:19.519Z,12.50
2018-02-27T19:12:48.374Z,13.10
2018-02-27T19:15:16.596Z,12.20
2018-02-27T19:17:45.419Z,11.80
2018-02-27T19:20:13.536Z,11.90
2018-02-27T19:22:41.744Z,10.93
2018-02-27T19:25:10.708Z,11.87
2018-02-27T19:27:38.923Z,10.37
2018-02-27T19:30:07.131Z,11.70
2018-02-27T19:32:35.212Z,11.63
2018-02-27T19:35:03.408Z,11.30
2018-02-27T19:37:31.478Z,11.67
2018-02-27T19:39:59.710Z,12.30
2018-02-27T19:42:27.808Z,12.40
2018-02-27T19:44:55.907Z,13.13
2018-02-27T19:47:24.263Z,12.03
2018-02-27T19:49:52.344Z,13.37
2018-02-27T19:52:20.428Z,13.60
2018-02-27T19:54:48.899Z,13.97
2018-02-27T19:57:16.971Z,12.93
2018-02-27T19:59:45.051Z,13.23
2018-02-27T20:02:13.254Z,12.97
2018-02-27T20:04:42.200Z,12.90
2018-02-27T20:07:10.312Z,13.17
2018-02-27T20:09:39.119Z,12.47
2018-02-27T20:12:08.064Z,13.47
2018-02-27T20:14:36.189Z,13.60
2018-02-27T20:17:05.185Z,13.90
2018-02-27T20:19:33.421Z,13.23
2018-02-27T20:22:01.506Z,13.10
2018-02-27T20:24:29.597Z,12.80
2018-02-27T20:26:58.580Z,11.90
2018-02-27T20:29:27.548Z,12.97
2018-02-27T20:31:55.636Z,12.80
2018-02-27T20:34:24.004Z,12.77
2018-02-27T20:36:52.292Z,12.83
2018-02-27T20:39:27.153Z,13.17
2018-02-27T20:41:56.139Z,13.07
2018-02-27T20:44:24.972Z,11.93
2018-02-27T20:46:53.185Z,13.60
2018-02-27T20:49:21.448Z,13.80
2018-02-27T20:51:49.533Z,15.93
2018-02-27T20:54:17.902Z,14.93
2018-02-27T20:56:46.156Z,15.70
2018-02-27T20:59:14.384Z,16.13
2018-02-27T21:01:43.351Z,14.00
2018-02-27T21:04:11.424Z,16.20
2018-02-27T21:06:39.496Z,16.53
2018-02-27T21:09:07.692Z,14.03
2018-02-27T21:11:35.795Z,12.50
2018-02-27T21:14:04.128Z,14.03
2018-02-27T21:16:32.333Z,13.57
2018-02-27T21:19:01.204Z,13.50
2018-02-27T21:21:29.396Z,10.37
2018-02-27T21:23:58.223Z,11.00
2018-02-27T21:26:26.362Z,11.77
2018-02-27T21:28:55.421Z,12.80
2018-02-27T21:31:23.504Z,11.83
2018-02-27T21:33:51.699Z,13.20
2018-02-27T21:36:20.541Z,12.00
2018-02-27T21:38:48.969Z,11.47
2018-02-27T21:41:17.057Z,12.10
2018-02-27T21:43:45.910Z,10.70
2018-02-27T21:46:14.153Z,12.60
2018-02-27T21:48:42.363Z,11.80
2018-02-27T21:51:10.585Z,10.90
2018-02-27T21:53:39.411Z,11.70
2018-02-27T21:56:07.503Z,9.80
2018-02-27T21:58:35.708Z,11.03
2018-02-27T22:01:03.804Z,10.80
2018-02-27T22:03:32.019Z,12.27
2018-02-27T22:06:00.215Z,11.93
2018-02-27T22:08:28.441Z,11.37
2018-02-27T22:10:56.838Z,11.53
2018-02-27T22:13:25.189Z,9.80
2018-02-27T22:15:54.276Z,9.87
2018-02-27T22:18:23.096Z,10.57
2018-02-27T22:20:51.304Z,11.23
2018-02-27T22:23:19.384Z,11.40
2018-02-27T22:25:47.463Z,10.43
2018-02-27T22:28:15.672Z,10.33
2018-02-27T22:30:44.489Z,9.50
2018-02-27T22:33:12.699Z,8.70
2018-02-27T22:35:40.772Z,9.30
2018-02-27T22:38:08.847Z,7.90
2018-02-27T22:40:37.064Z,7.97
2018-02-27T22:43:05.897Z,8.87
2018-02-27T22:45:34.320Z,8.20
2018-02-27T22:48:03.127Z,8.90
2018-02-27T22:50:31.956Z,8.43
2018-02-27T22:53:00.165Z,9.03
2018-02-27T22:55:28.398Z,9.07
2018-02-27T22:57:56.612Z,9.07
2018-02-27T23:00:36.127Z,9.20
2018-02-27T23:03:04.208Z,8.43
2018-02-27T23:05:32.419Z,9.47
2018-02-27T23:08:01.243Z,8.63
2018-02-27T23:10:29.327Z,9.63
2018-02-27T23:12:59.390Z,8.30
2018-02-27T23:15:27.635Z,9.10
2018-02-27T23:17:55.712Z,8.10
2018-02-27T23:20:23.984Z,9.73
2018-02-27T23:22:52.216Z,8.60
2018-02-27T23:25:31.540Z,9.20
2018-02-27T23:28:02.780Z,8.60
2018-02-27T23:30:31.167Z,9.10
2018-02-27T23:33:03.013Z,8.00
2018-02-27T23:35:31.803Z,9.57
2018-02-27T23:37:59.884Z,7.37
2018-02-27T23:40:27.968Z,9.10
2018-02-27T23:42:56.906Z,8.03
2018-02-27T23:45:25.118Z,8.03
2018-02-27T23:47:53.200Z,8.63
2018-02-27T23:50:21.419Z,10.13
2018-02-27T23:52:49.520Z,9.50
2018-02-27T23:55:17.596Z,8.67
2018-02-27T23:57:45.815Z,8.43
